KACK

Nantucket Memorial Airport

Nantucket, Massachusetts, USA
METAR KACK 161353Z 28012G23KT 10SM CLR M02/M06 A2994 RMK AO2 SLP139 T10171061
Observed Flight Rules
Dec-16 @ 13:53 UTC (48 minutes ago) Visual Flight Rules
Wind Visibility Clouds
280° at 12 knots
 Gusting to 23 knots
10 miles
  • Clear skies
Temperatures Readings
Current -2°C / 28°F
Dewpoint -6°C / 21°F
Humidity 74%
Altimeter 29.94" Hg
Pressure 1013.9 hPa
Elevation 16
METAR KACK 161353Z 28012G23KT 10SM CLR M02/M06 A2994 RMK AO2 SLP139 T10171061
Observed Flight Rules
Dec-16 @ 13:53 UTC
(48 minutes ago)
VFR
Wind Visibility
280° at 12 knots
 Gusting to 23 knots
10 miles
Clouds
  • Clear skies
Temperature Dewpoint
-2°C / 28°F -6°C / 21°F
Humidity Altimeter Pressure
74% 29.94" Hg 1013.9 hPa